Time;durP1;ratioP1;P1;durP2;ratioP2;P2;SDS_P1;SDS_P2;PMS_P1;PMS_P2;Temp;Humidity;BMP_temperature;BMP_pressure;BME280_temperature;BME280_humidity;BME280_pressure;Samples;Min_cycle;Max_cycle;Signal;HPM_P1;HPM_P2
2023/01/01 00:01:15;;;;;;;552.42;292.95;;;6.40;99.90;;;;;;5071632;28;20027;-80
2023/01/01 00:03:52;;;;;;;547.92;281.48;;;6.40;99.90;;;;;;5077489;28;20039;-80
2023/01/01 00:06:18;;;;;;;541.40;283.50;;;6.40;99.90;;;;;;5072806;28;20036;-80
2023/01/01 00:08:44;;;;;;;552.35;296.95;;;6.40;99.90;;;;;;5073899;28;20037;-81
2023/01/01 00:11:10;;;;;;;533.67;277.58;;;6.40;99.90;;;;;;5070338;28;20157;-79
2023/01/01 00:13:39;;;;;;;506.33;265.20;;;6.40;99.90;;;;;;5071584;28;20062;-79
2023/01/01 00:16:13;;;;;;;518.38;269.80;;;6.30;99.90;;;;;;5072749;28;20040;-81
2023/01/01 00:18:39;;;;;;;551.88;267.83;;;6.40;99.90;;;;;;5092604;28;20460;-79
2023/01/01 00:21:08;;;;;;;533.58;242.23;;;6.40;99.90;;;;;;5093850;28;20035;-77
2023/01/01 00:23:34;;;;;;;465.60;220.50;;;6.40;99.90;;;;;;5093812;28;20051;-78
2023/01/01 00:26:00;;;;;;;403.70;197.88;;;6.30;99.90;;;;;;5092598;28;20031;-78
2023/01/01 00:28:27;;;;;;;332.90;161.68;;;6.30;99.90;;;;;;5094560;28;20073;-79
2023/01/01 00:30:52;;;;;;;323.80;159.32;;;6.30;99.90;;;;;;5093724;28;20099;-77
2023/01/01 00:33:18;;;;;;;326.55;158.75;;;6.40;99.90;;;;;;5072654;28;20155;-80
2023/01/01 00:35:44;;;;;;;348.02;173.35;;;6.40;99.90;;;;;;5072643;28;20032;-78
2023/01/01 00:38:09;;;;;;;450.17;230.60;;;6.40;99.90;;;;;;5072788;28;20024;-79
2023/01/01 00:40:35;;;;;;;489.08;256.45;;;6.30;99.90;;;;;;5073030;28;20195;-78
2023/01/01 00:43:01;;;;;;;477.85;253.50;;;6.30;99.90;;;;;;5073018;28;20029;-78
2023/01/01 00:45:27;;;;;;;496.73;262.17;;;6.30;99.90;;;;;;5073127;28;20032;-78
2023/01/01 00:47:53;;;;;;;519.15;272.58;;;6.30;99.90;;;;;;5072342;28;20020;-77
2023/01/01 00:50:20;;;;;;;519.28;273.05;;;6.30;99.90;;;;;;5071195;28;20024;-79
2023/01/01 00:52:47;;;;;;;533.67;281.05;;;6.30;99.90;;;;;;5072625;28;20019;-79
2023/01/01 00:55:13;;;;;;;520.08;275.67;;;6.30;99.90;;;;;;5072321;28;20116;-80
2023/01/01 00:57:39;;;;;;;527.38;280.15;;;6.30;99.90;;;;;;5074067;28;20103;-78
2023/01/01 01:00:05;;;;;;;560.33;295.90;;;6.30;99.90;;;;;;5073935;28;20430;-78
2023/01/01 01:02:31;;;;;;;552.47;295.85;;;6.30;99.90;;;;;;5070945;28;20024;-78
2023/01/01 01:04:57;;;;;;;537.22;284.13;;;6.20;99.90;;;;;;5066523;28;20110;-78
2023/01/01 01:07:23;;;;;;;533.20;282.02;;;6.20;99.90;;;;;;5071955;28;20074;-78
2023/01/01 01:09:48;;;;;;;507.42;264.08;;;6.20;99.90;;;;;;5071576;28;20028;-79
2023/01/01 01:12:14;;;;;;;493.52;261.00;;;6.20;99.90;;;;;;5072534;28;20036;-80
2023/01/01 01:14:40;;;;;;;528.78;276.35;;;6.20;99.90;;;;;;5071880;28;20420;-79
2023/01/01 01:17:05;;;;;;;501.50;259.55;;;6.10;99.90;;;;;;5072653;28;20634;-80
2023/01/01 01:19:31;;;;;;;508.13;256.35;;;6.10;99.90;;;;;;5070660;28;20048;-79
2023/01/01 01:21:57;;;;;;;491.27;256.40;;;6.10;99.90;;;;;;5073332;28;20443;-80
2023/01/01 01:24:22;;;;;;;504.85;256.42;;;6.10;99.90;;;;;;5072747;28;20016;-79
2023/01/01 01:26:48;;;;;;;499.40;254.65;;;6.10;99.90;;;;;;5072796;28;20512;-80
2023/01/01 01:29:14;;;;;;;520.20;265.25;;;6.00;99.90;;;;;;5071916;28;20039;-79
2023/01/01 01:31:39;;;;;;;545.40;281.83;;;5.90;99.90;;;;;;5071786;28;20027;-79
2023/01/01 01:34:05;;;;;;;555.50;281.77;;;5.90;99.90;;;;;;5071200;28;20020;-78
2023/01/01 01:36:31;;;;;;;635.70;330.08;;;5.80;99.90;;;;;;5072932;28;20104;-79
2023/01/01 01:38:57;;;;;;;676.50;343.42;;;5.80;99.90;;;;;;5071629;28;20471;-79
2023/01/01 01:41:25;;;;;;;667.60;340.35;;;5.80;99.90;;;;;;5072858;28;20448;-79
2023/01/01 01:43:59;;;;;;;677.13;351.25;;;5.70;99.90;;;;;;5072874;28;20017;-79
2023/01/01 01:46:31;;;;;;;677.00;351.52;;;5.80;99.90;;;;;;5066915;28;20048;-80
2023/01/01 01:49:04;;;;;;;674.35;350.83;;;5.80;99.90;;;;;;5071561;28;20032;-77
2023/01/01 01:51:35;;;;;;;674.28;349.92;;;5.70;99.90;;;;;;5071613;28;20058;-79
2023/01/01 01:54:06;;;;;;;654.97;347.88;;;5.70;99.90;;;;;;5071189;28;20032;-79
2023/01/01 01:56:46;;;;;;;642.42;335.83;;;5.70;99.90;;;;;;5067118;28;20032;-80
2023/01/01 01:59:12;;;;;;;637.28;336.95;;;5.70;99.90;;;;;;5067495;28;20013;-78
2023/01/01 02:01:38;;;;;;;626.90;329.90;;;5.80;99.90;;;;;;5072400;28;20134;-79
2023/01/01 02:04:04;;;;;;;619.33;327.20;;;5.70;99.90;;;;;;5072466;28;20025;-80
2023/01/01 02:06:33;;;;;;;622.80;318.65;;;5.70;99.90;;;;;;5071523;28;20036;-79
2023/01/01 02:09:03;;;;;;;578.35;298.25;;;5.70;99.90;;;;;;5071430;28;20443;-79
2023/01/01 02:11:28;;;;;;;551.30;284.30;;;5.70;99.90;;;;;;5072534;28;20474;-78
2023/01/01 02:13:55;;;;;;;537.15;274.73;;;5.70;99.90;;;;;;5070877;28;20021;-78
2023/01/01 02:16:54;;;;;;;458.92;231.68;;;5.60;99.90;;;;;;5071313;28;20032;-81
2023/01/01 02:19:38;;;;;;;469.35;225.38;;;5.60;99.90;;;;;;5068248;28;20371;-79
2023/01/01 02:22:16;;;;;;;432.67;215.43;;;5.70;99.90;;;;;;5072503;28;20020;-78
2023/01/01 02:25:06;;;;;;;403.63;199.88;;;5.70;99.90;;;;;;5072496;28;20048;-78
2023/01/01 02:27:38;;;;;;;370.27;180.32;;;5.70;99.90;;;;;;5072182;28;20027;-78
2023/01/01 02:30:06;;;;;;;373.02;171.88;;;5.70;99.90;;;;;;5072528;28;20341;-79
2023/01/01 02:32:55;;;;;;;383.45;182.77;;;5.70;99.90;;;;;;5071130;28;20028;-78
2023/01/01 02:35:35;;;;;;;371.50;176.55;;;5.70;99.90;;;;;;5066368;28;20025;-80
2023/01/01 02:38:28;;;;;;;359.30;171.73;;;5.70;99.90;;;;;;5075280;28;20020;-79
2023/01/01 02:41:01;;;;;;;373.50;185.70;;;5.70;99.90;;;;;;5070935;28;20370;-79
2023/01/01 02:43:27;;;;;;;375.10;179.07;;;5.70;99.90;;;;;;5074566;28;20026;-79
2023/01/01 02:45:53;;;;;;;394.75;185.68;;;5.70;99.90;;;;;;5076093;28;20035;-79
2023/01/01 02:48:42;;;;;;;420.50;203.35;;;5.70;99.90;;;;;;5074624;28;20017;-79
2023/01/01 02:51:38;;;;;;;400.05;189.88;;;5.60;99.90;;;;;;5070574;28;20024;-80
2023/01/01 02:54:16;;;;;;;454.27;216.73;;;5.60;99.90;;;;;;5073002;28;20459;-78
2023/01/01 02:57:02;;;;;;;475.48;223.50;;;5.60;99.90;;;;;;5075071;28;20370;-79
2023/01/01 03:02:40;;;;;;;418.05;208.98;;;5.60;99.90;;;;;;5075440;28;20082;-79
2023/01/01 03:05:13;;;;;;;431.33;208.70;;;5.60;99.90;;;;;;5075499;28;20027;-79
2023/01/01 03:07:58;;;;;;;401.48;187.48;;;5.50;99.90;;;;;;5076036;28;20021;-78
2023/01/01 03:10:50;;;;;;;393.80;189.05;;;5.50;99.90;;;;;;5068524;28;20174;-78
2023/01/01 03:13:38;;;;;;;364.30;172.75;;;5.40;99.90;;;;;;5071029;28;20478;-79
2023/01/01 03:16:12;;;;;;;373.90;172.63;;;5.40;99.90;;;;;;5074004;28;20025;-80
2023/01/01 03:19:09;;;;;;;354.65;168.40;;;5.40;99.90;;;;;;5075000;28;20051;-78
2023/01/01 03:21:47;;;;;;;336.17;154.35;;;5.40;99.90;;;;;;5072221;28;20101;-79
2023/01/01 03:24:29;;;;;;;339.35;160.32;;;5.40;99.90;;;;;;5073196;28;20028;-79
2023/01/01 03:27:03;;;;;;;349.85;168.85;;;5.30;99.90;;;;;;5073895;28;20103;-79
2023/01/01 03:29:33;;;;;;;350.83;165.60;;;5.30;99.90;;;;;;5074405;28;20463;-79
2023/01/01 03:32:02;;;;;;;336.58;158.43;;;5.30;99.90;;;;;;5074306;28;20114;-80
2023/01/01 03:34:34;;;;;;;350.10;163.23;;;5.30;99.90;;;;;;5075447;28;20027;-79
2023/01/01 03:37:06;;;;;;;350.35;170.85;;;5.20;99.90;;;;;;5075464;28;20363;-79
2023/01/01 03:39:40;;;;;;;352.98;177.15;;;5.30;99.90;;;;;;5075543;28;20028;-78
2023/01/01 03:42:21;;;;;;;352.35;170.13;;;5.20;99.90;;;;;;5075601;28;20032;-79
2023/01/01 03:44:53;;;;;;;350.75;166.40;;;5.30;99.90;;;;;;5075278;28;20115;-78
2023/01/01 03:47:19;;;;;;;340.58;166.98;;;5.20;99.90;;;;;;5075025;28;20486;-79
2023/01/01 03:49:45;;;;;;;336.80;163.60;;;5.20;99.90;;;;;;5075358;28;20016;-78
2023/01/01 03:52:25;;;;;;;338.90;170.43;;;5.20;99.90;;;;;;5075193;28;20020;-78
2023/01/01 03:55:09;;;;;;;332.35;166.27;;;5.20;99.90;;;;;;5075400;28;20417;-80
2023/01/01 03:57:57;;;;;;;325.88;154.50;;;5.20;99.90;;;;;;5074147;28;20082;-78
2023/01/01 04:00:27;;;;;;;324.38;153.45;;;5.20;99.90;;;;;;5074478;28;20024;-80
2023/01/01 04:03:17;;;;;;;307.30;148.88;;;5.20;99.90;;;;;;5074945;28;20473;-78
2023/01/01 04:05:43;;;;;;;327.92;160.63;;;5.20;99.90;;;;;;5074373;28;20025;-78
2023/01/01 04:08:10;;;;;;;335.63;163.90;;;5.20;99.90;;;;;;5073091;28;20028;-79
2023/01/01 04:10:40;;;;;;;333.50;158.10;;;5.20;99.90;;;;;;5074402;28;20078;-78
2023/01/01 04:13:07;;;;;;;335.15;162.55;;;5.20;99.90;;;;;;5072817;28;20024;-79
2023/01/01 04:15:34;;;;;;;310.13;147.05;;;5.10;99.90;;;;;;5072526;28;20028;-79
2023/01/01 04:18:01;;;;;;;297.30;141.65;;;5.20;99.90;;;;;;5074279;28;20028;-78
2023/01/01 04:20:27;;;;;;;347.35;151.18;;;5.20;99.90;;;;;;5073187;28;20079;-79
2023/01/01 04:22:57;;;;;;;307.58;140.93;;;5.20;99.90;;;;;;5074205;28;20447;-79
2023/01/01 04:25:23;;;;;;;250.60;119.25;;;5.10;99.90;;;;;;5073627;28;20121;-77
2023/01/01 04:27:48;;;;;;;240.95;120.78;;;5.10;99.90;;;;;;5073739;28;20099;-79
2023/01/01 04:30:14;;;;;;;262.25;120.95;;;5.10;99.90;;;;;;5072654;28;20020;-79
2023/01/01 04:32:40;;;;;;;238.18;111.40;;;5.10;99.90;;;;;;5073470;28;20479;-79
2023/01/01 04:35:07;;;;;;;295.58;124.47;;;5.10;99.90;;;;;;5072425;28;20029;-79
2023/01/01 04:37:35;;;;;;;197.68;93.00;;;5.10;99.90;;;;;;5073563;28;20524;-80
2023/01/01 04:40:01;;;;;;;202.55;92.95;;;5.10;99.90;;;;;;5073504;28;20069;-79
2023/01/01 04:42:27;;;;;;;239.77;104.97;;;5.10;99.90;;;;;;5073763;28;20020;-79
2023/01/01 04:44:52;;;;;;;191.60;86.65;;;5.10;99.90;;;;;;5072723;28;20028;-79
2023/01/01 04:47:18;;;;;;;172.80;78.35;;;5.10;99.90;;;;;;5073880;28;20024;-79
2023/01/01 04:49:44;;;;;;;216.55;91.10;;;5.10;99.90;;;;;;5073889;28;20373;-79
2023/01/01 04:52:10;;;;;;;159.40;68.85;;;5.10;99.90;;;;;;5072877;28;20021;-78
2023/01/01 04:54:35;;;;;;;179.57;75.70;;;5.10;99.90;;;;;;5072463;28;20071;-79
2023/01/01 04:57:01;;;;;;;162.05;70.40;;;5.10;99.90;;;;;;5073219;28;20451;-78
2023/01/01 04:59:29;;;;;;;103.75;50.83;;;5.10;99.90;;;;;;5072937;28;20024;-79
2023/01/01 05:01:55;;;;;;;101.38;47.13;;;5.10;99.90;;;;;;5073740;28;20020;-78
2023/01/01 05:04:21;;;;;;;102.40;50.42;;;5.10;99.90;;;;;;5073103;28;20043;-79
2023/01/01 05:06:46;;;;;;;99.75;48.28;;;5.10;99.90;;;;;;5072779;28;20025;-79
2023/01/01 05:09:12;;;;;;;101.07;48.35;;;5.00;99.90;;;;;;5072705;28;20103;-78
2023/01/01 05:11:38;;;;;;;122.68;56.25;;;5.00;99.90;;;;;;5072036;28;20028;-79
2023/01/01 05:14:04;;;;;;;121.70;58.28;;;5.00;99.90;;;;;;5072936;28;20024;-80
2023/01/01 05:16:36;;;;;;;115.88;56.38;;;5.00;99.90;;;;;;5072956;28;20104;-78
2023/01/01 05:19:03;;;;;;;159.52;68.45;;;5.00;99.90;;;;;;5072944;28;20112;-79
2023/01/01 05:21:35;;;;;;;157.55;72.95;;;5.00;99.90;;;;;;5071720;28;20021;-78
2023/01/01 05:24:03;;;;;;;188.75;82.65;;;5.00;99.90;;;;;;5066756;28;20046;-78
2023/01/01 05:26:31;;;;;;;210.63;92.00;;;5.00;99.90;;;;;;5072664;28;20490;-79
2023/01/01 05:28:57;;;;;;;225.48;97.60;;;5.00;99.90;;;;;;5072388;28;20467;-78
2023/01/01 05:31:26;;;;;;;206.73;93.68;;;5.00;99.90;;;;;;5073588;28;20021;-79
2023/01/01 05:33:52;;;;;;;210.18;93.28;;;5.00;99.90;;;;;;5073343;28;20027;-77
2023/01/01 05:36:24;;;;;;;209.88;95.63;;;5.10;99.90;;;;;;5073685;28;20033;-78
2023/01/01 05:38:51;;;;;;;218.50;97.45;;;5.00;99.90;;;;;;5072250;28;20452;-78
2023/01/01 05:41:18;;;;;;;224.88;102.13;;;5.00;99.90;;;;;;5072308;28;20108;-79
2023/01/01 05:43:44;;;;;;;223.95;101.28;;;5.00;99.90;;;;;;5072341;28;20363;-78
2023/01/01 05:46:13;;;;;;;222.95;100.28;;;5.00;99.90;;;;;;5073859;28;20441;-78
2023/01/01 05:48:38;;;;;;;215.25;97.57;;;5.00;99.90;;;;;;5073761;28;20101;-78
2023/01/01 05:51:05;;;;;;;202.63;95.75;;;5.00;99.90;;;;;;5073402;28;20056;-78
2023/01/01 05:53:32;;;;;;;219.18;96.20;;;5.00;99.90;;;;;;5073613;28;20044;-79
2023/01/01 05:55:58;;;;;;;258.30;108.95;;;5.00;99.90;;;;;;5072037;28;20086;-79
2023/01/01 05:58:25;;;;;;;242.98;101.32;;;5.00;99.90;;;;;;5070846;28;20039;-79
2023/01/01 06:00:51;;;;;;;173.60;79.90;;;4.90;99.90;;;;;;5071146;28;20044;-78
2023/01/01 06:03:17;;;;;;;167.57;79.35;;;4.90;99.90;;;;;;5072914;28;20013;-79
2023/01/01 06:05:43;;;;;;;168.40;76.57;;;4.80;99.90;;;;;;5072718;28;20059;-80
2023/01/01 06:08:09;;;;;;;174.50;80.40;;;4.90;99.90;;;;;;5072441;28;20052;-79
2023/01/01 06:10:35;;;;;;;186.88;82.55;;;4.80;99.90;;;;;;5071703;28;20027;-79
2023/01/01 06:13:00;;;;;;;274.58;110.63;;;4.80;99.90;;;;;;5076201;28;20016;-79
2023/01/01 06:15:27;;;;;;;258.15;107.72;;;4.80;99.90;;;;;;5075100;28;20028;-79
2023/01/01 06:17:53;;;;;;;267.08;106.97;;;4.80;99.90;;;;;;5075700;28;20025;-78
2023/01/01 06:20:19;;;;;;;223.63;99.35;;;4.80;99.90;;;;;;5077015;28;20052;-78
2023/01/01 06:22:45;;;;;;;187.63;87.90;;;4.80;99.90;;;;;;5075659;28;20074;-78
2023/01/01 06:25:11;;;;;;;187.60;86.45;;;4.80;99.90;;;;;;5074947;28;20028;-80
2023/01/01 06:27:37;;;;;;;180.85;86.88;;;4.80;99.90;;;;;;5075927;28;20020;-79
2023/01/01 06:30:04;;;;;;;256.58;109.47;;;4.80;99.90;;;;;;5070763;28;20031;-78
2023/01/01 06:32:30;;;;;;;227.65;104.82;;;4.80;99.90;;;;;;5075582;28;20025;-79
2023/01/01 06:34:56;;;;;;;211.93;92.80;;;4.80;99.90;;;;;;5074221;28;20033;-78
2023/01/01 06:37:22;;;;;;;258.27;104.10;;;4.80;99.90;;;;;;5076497;28;20047;-81
2023/01/01 06:39:47;;;;;;;271.27;109.60;;;4.90;99.90;;;;;;5075910;28;20028;-79
2023/01/01 06:42:13;;;;;;;278.70;110.70;;;4.90;99.90;;;;;;5076076;28;20017;-80
2023/01/01 06:44:39;;;;;;;323.38;126.55;;;4.90;99.90;;;;;;5075805;28;20043;-78
2023/01/01 06:47:04;;;;;;;295.27;119.35;;;4.90;99.90;;;;;;5074430;28;20033;-80
2023/01/01 06:49:30;;;;;;;252.05;110.30;;;5.00;99.90;;;;;;5075669;28;20386;-78
2023/01/01 06:51:56;;;;;;;275.33;114.28;;;5.00;99.90;;;;;;5075673;28;20012;-80
2023/01/01 06:54:22;;;;;;;255.88;109.63;;;5.00;99.90;;;;;;5075284;28;20452;-79
2023/01/01 06:56:48;;;;;;;305.38;122.18;;;5.00;99.90;;;;;;5075477;28;20035;-78
2023/01/01 06:59:16;;;;;;;301.65;122.13;;;5.10;99.90;;;;;;5075392;28;20012;-79
2023/01/01 07:01:42;;;;;;;297.40;122.65;;;5.10;99.90;;;;;;5074007;28;20021;-79
2023/01/01 07:04:11;;;;;;;251.65;111.97;;;5.10;99.90;;;;;;5074259;28;20370;-79
2023/01/01 07:06:37;;;;;;;252.63;110.22;;;5.20;99.90;;;;;;5074476;28;20032;-80
2023/01/01 07:09:05;;;;;;;264.88;119.07;;;5.30;99.90;;;;;;5074653;28;20031;-78
2023/01/01 07:11:31;;;;;;;248.68;118.38;;;5.60;99.90;;;;;;5075334;28;20051;-78
2023/01/01 07:13:57;;;;;;;236.15;109.80;;;6.00;99.90;;;;;;5075454;28;20101;-80
2023/01/01 07:16:23;;;;;;;214.02;106.75;;;6.20;99.90;;;;;;5073846;28;20056;-80
2023/01/01 07:18:49;;;;;;;238.95;107.80;;;6.30;99.90;;;;;;5075308;28;20036;-79
2023/01/01 07:21:44;;;;;;;188.15;89.75;;;6.50;99.90;;;;;;5073760;28;20107;-79
2023/01/01 07:24:14;;;;;;;185.60;83.75;;;6.60;99.90;;;;;;5072291;28;20025;-79
2023/01/01 07:26:40;;;;;;;175.32;81.28;;;6.70;99.90;;;;;;5074994;28;20381;-80
2023/01/01 07:29:09;;;;;;;158.52;81.88;;;6.70;99.90;;;;;;5075510;28;20024;-80
2023/01/01 07:31:37;;;;;;;165.20;83.65;;;6.90;99.90;;;;;;5075879;28;20044;-80
2023/01/01 07:34:03;;;;;;;147.75;70.45;;;7.10;99.90;;;;;;5074088;28;20020;-81
2023/01/01 07:36:29;;;;;;;151.77;76.20;;;7.00;99.90;;;;;;5075488;28;20033;-81
2023/01/01 07:38:55;;;;;;;154.20;76.10;;;6.90;99.90;;;;;;5075494;28;20074;-78
2023/01/01 07:41:20;;;;;;;158.07;82.60;;;6.90;99.90;;;;;;5074178;28;20048;-78
2023/01/01 07:43:46;;;;;;;203.73;101.22;;;7.00;99.90;;;;;;5075607;28;20027;-79
2023/01/01 07:46:15;;;;;;;180.60;86.38;;;7.20;99.90;;;;;;5075167;28;20031;-80
2023/01/01 07:48:41;;;;;;;191.20;93.88;;;7.40;99.90;;;;;;5075075;28;20020;-80
2023/01/01 07:51:06;;;;;;;220.20;110.70;;;7.70;99.90;;;;;;5073969;28;20107;-80
2023/01/01 07:53:32;;;;;;;271.35;131.68;;;7.70;99.90;;;;;;5072683;28;20467;-79
2023/01/01 07:55:58;;;;;;;233.32;111.15;;;7.80;99.90;;;;;;5072586;28;20043;-80
2023/01/01 07:58:24;;;;;;;188.45;94.15;;;7.80;99.90;;;;;;5072345;28;20024;-80
2023/01/01 08:00:50;;;;;;;154.52;78.30;;;7.90;99.90;;;;;;5071589;28;20421;-80
2023/01/01 08:03:16;;;;;;;130.18;66.05;;;8.10;99.90;;;;;;5072419;28;20103;-80
2023/01/01 08:05:42;;;;;;;143.52;70.85;;;8.10;99.90;;;;;;5072810;28;20020;-81
2023/01/01 08:08:08;;;;;;;110.90;52.45;;;8.10;99.90;;;;;;5072667;28;20031;-79
2023/01/01 08:10:34;;;;;;;97.68;51.20;;;8.30;99.90;;;;;;5073489;28;20118;-80
2023/01/01 08:13:01;;;;;;;103.50;54.50;;;8.50;99.90;;;;;;5072295;28;20479;-79
2023/01/01 08:15:27;;;;;;;114.45;63.42;;;8.70;99.90;;;;;;5073185;28;20033;-79
2023/01/01 08:17:57;;;;;;;116.80;57.10;;;8.60;99.90;;;;;;5073475;28;20073;-79
2023/01/01 08:20:23;;;;;;;103.57;52.65;;;8.50;99.90;;;;;;5068088;28;20382;-80
2023/01/01 08:22:49;;;;;;;108.00;63.10;;;8.60;99.90;;;;;;5072653;28;20042;-79
2023/01/01 08:25:14;;;;;;;99.53;50.85;;;8.80;99.90;;;;;;5072777;28;20547;-79
2023/01/01 08:27:40;;;;;;;109.30;51.10;;;8.90;99.90;;;;;;5072635;28;20016;-79
2023/01/01 08:30:06;;;;;;;89.80;46.10;;;8.80;99.90;;;;;;5073275;28;20452;-80
2023/01/01 08:32:32;;;;;;;100.22;49.90;;;8.90;99.90;;;;;;5073564;28;20024;-79
2023/01/01 08:34:58;;;;;;;88.07;47.15;;;9.00;99.90;;;;;;5072766;28;20082;-78
2023/01/01 08:37:23;;;;;;;108.05;67.28;;;9.00;99.90;;;;;;5073086;28;20020;-79
2023/01/01 08:39:50;;;;;;;68.97;38.67;;;9.10;99.90;;;;;;5072162;28;20444;-81
2023/01/01 08:42:16;;;;;;;46.75;24.05;;;9.30;99.90;;;;;;5073150;28;20050;-78
2023/01/01 08:44:41;;;;;;;48.58;25.77;;;9.40;99.90;;;;;;5073094;28;20463;-78
2023/01/01 08:47:25;;;;;;;69.93;36.25;;;9.50;99.90;;;;;;5072928;28;20021;-79
2023/01/01 08:49:51;;;;;;;71.00;36.80;;;9.60;99.90;;;;;;5067420;28;19915;-79
2023/01/01 08:52:17;;;;;;;62.70;29.90;;;9.70;99.90;;;;;;5072197;28;20048;-79
2023/01/01 08:54:43;;;;;;;71.80;36.10;;;9.90;99.90;;;;;;5071376;28;20182;-79
2023/01/01 08:57:09;;;;;;;61.38;33.88;;;10.10;99.90;;;;;;5071868;28;20111;-79
2023/01/01 08:59:35;;;;;;;61.63;32.20;;;10.30;99.90;;;;;;5072877;28;20021;-79
2023/01/01 09:02:01;;;;;;;49.53;26.97;;;10.40;99.90;;;;;;5072337;28;19914;-78
2023/01/01 09:04:26;;;;;;;56.70;31.80;;;10.60;99.90;;;;;;5072497;28;20115;-78
2023/01/01 09:06:52;;;;;;;61.65;35.20;;;10.70;99.90;;;;;;5072243;28;20073;-80
2023/01/01 09:09:18;;;;;;;51.92;26.60;;;10.90;99.90;;;;;;5073340;28;20466;-79
2023/01/01 09:11:52;;;;;;;55.17;29.50;;;10.90;99.90;;;;;;5072768;28;20078;-80
2023/01/01 09:14:18;;;;;;;62.20;29.65;;;11.10;99.90;;;;;;5070690;28;20016;-78
2023/01/01 09:16:43;;;;;;;46.40;25.98;;;11.20;99.90;;;;;;5071750;28;20048;-78
2023/01/01 09:19:09;;;;;;;48.00;25.30;;;11.30;99.90;;;;;;5073313;28;20182;-77
2023/01/01 09:21:35;;;;;;;51.45;26.77;;;11.50;99.90;;;;;;5073020;28;20375;-79
2023/01/01 09:24:00;;;;;;;53.20;29.90;;;11.80;99.90;;;;;;5071767;28;20016;-77
2023/01/01 09:26:26;;;;;;;56.63;30.92;;;12.00;99.90;;;;;;5072671;28;20029;-77
2023/01/01 09:28:52;;;;;;;59.75;30.15;;;12.30;99.90;;;;;;5073397;28;20020;-79
2023/01/01 09:31:17;;;;;;;53.28;29.30;;;12.50;99.90;;;;;;5072517;28;20016;-78
2023/01/01 09:33:43;;;;;;;51.80;29.58;;;12.60;99.90;;;;;;5073573;28;20019;-76
2023/01/01 09:36:28;;;;;;;62.83;32.83;;;12.90;99.90;;;;;;5073422;28;20024;-78
2023/01/01 09:38:57;;;;;;;112.47;55.05;;;13.30;99.90;;;;;;5073422;28;20055;-78
2023/01/01 09:42:09;;;;;;;285.50;141.07;;;13.80;99.90;;;;;;5073659;28;20074;-78
2023/01/01 09:44:54;;;;;;;319.90;167.55;;;14.20;99.90;;;;;;5065686;28;20028;-79
2023/01/01 09:47:39;;;;;;;172.95;97.60;;;14.20;99.90;;;;;;5076028;28;20024;-77
2023/01/01 09:50:12;;;;;;;73.88;38.67;;;13.90;99.90;;;;;;5076615;28;20032;-76
2023/01/01 09:52:48;;;;;;;49.75;27.50;;;13.70;99.90;;;;;;5077444;28;20020;-76
2023/01/01 09:55:47;;;;;;;68.50;37.63;;;14.00;99.90;;;;;;5077499;28;20113;-78
2023/01/01 09:58:14;;;;;;;39.38;23.20;;;15.10;99.90;;;;;;5076928;28;20447;-76
2023/01/01 10:00:47;;;;;;;58.47;35.17;;;15.80;98.10;;;;;;5075544;28;20070;-78
2023/01/01 10:03:38;;;;;;;42.05;24.73;;;16.40;95.40;;;;;;5075287;28;20038;-76
2023/01/01 10:06:13;;;;;;;37.88;21.33;;;16.70;94.00;;;;;;5074865;28;20025;-78
2023/01/01 10:08:53;;;;;;;26.75;16.95;;;17.40;91.50;;;;;;5073890;28;20020;-76
2023/01/01 10:11:57;;;;;;;39.35;23.02;;;17.60;87.60;;;;;;5074382;28;20028;-79
2023/01/01 10:14:31;;;;;;;59.75;32.17;;;17.40;83.20;;;;;;5075521;28;20371;-78
2023/01/01 10:17:00;;;;;;;40.67;24.65;;;17.20;83.10;;;;;;5067679;28;20074;-77
2023/01/01 10:19:35;;;;;;;38.30;20.05;;;17.50;84.90;;;;;;5075748;28;20387;-75
2023/01/01 10:22:10;;;;;;;40.60;23.85;;;17.90;81.30;;;;;;5076613;28;20451;-76
2023/01/01 10:24:55;;;;;;;29.67;18.20;;;18.40;79.80;;;;;;5076241;28;20023;-76
2023/01/01 10:27:32;;;;;;;39.67;23.67;;;18.80;75.20;;;;;;5056024;28;20025;-76
2023/01/01 10:30:01;;;;;;;98.28;53.42;;;19.50;73.10;;;;;;5056641;28;20040;-77
2023/01/01 10:32:28;;;;;;;40.75;24.10;;;;;;;;;;5055847;28;20017;-78
2023/01/01 10:34:56;;;;;;;45.80;25.85;;;20.40;67.60;;;;;;5059451;28;20100;-76
2023/01/01 10:37:21;;;;;;;48.85;27.52;;;20.70;67.00;;;;;;5074917;28;20024;-76
2023/01/01 10:39:48;;;;;;;38.90;22.63;;;21.20;64.20;;;;;;5075677;28;20032;-77
2023/01/01 10:42:15;;;;;;;38.42;23.45;;;;;;;;;;5073370;28;20093;-77
2023/01/01 10:44:41;;;;;;;253.50;97.88;;;;;;;;;;5074750;28;20024;-77
2023/01/01 10:47:13;;;;;;;61.17;31.38;;;;;;;;;;5073890;28;20028;-77
2023/01/01 10:49:53;;;;;;;132.80;58.05;;;;;;;;;;5074636;28;20016;-77
2023/01/01 10:52:20;;;;;;;54.30;32.00;;;;;;;;;;5074528;28;20031;-77
2023/01/01 10:54:48;;;;;;;76.18;39.53;;;21.80;59.20;;;;;;5074097;28;20013;-77
2023/01/01 10:57:33;;;;;;;104.35;53.10;;;21.50;58.50;;;;;;5071432;28;20078;-77
2023/01/01 11:00:22;;;;;;;124.65;57.58;;;21.70;58.20;;;;;;5074180;28;20162;-77
2023/01/01 11:03:14;;;;;;;167.75;42.60;;;21.70;56.10;;;;;;5074910;28;20036;-78
2023/01/01 11:06:05;;;;;;;129.63;61.03;;;21.90;56.80;;;;;;5072345;28;20066;-77
2023/01/01 11:08:32;;;;;;;129.05;61.72;;;21.60;57.00;;;;;;5074784;28;20032;-78
2023/01/01 11:11:00;;;;;;;47.08;27.55;;;21.10;57.20;;;;;;5073385;28;20379;-76
2023/01/01 11:13:27;;;;;;;122.72;56.22;;;21.00;58.00;;;;;;5072586;28;20074;-77
2023/01/01 11:15:53;;;;;;;70.97;36.80;;;21.10;58.00;;;;;;5074058;28;20066;-79
2023/01/01 11:18:24;;;;;;;67.93;40.05;;;20.90;58.50;;;;;;5075134;28;20475;-77
2023/01/01 11:20:58;;;;;;;213.48;84.88;;;20.50;59.70;;;;;;5084281;28;20110;-77
2023/01/01 11:23:39;;;;;;;49.70;31.95;;;20.40;60.20;;;;;;5075040;28;20021;-78
2023/01/01 11:26:06;;;;;;;50.17;31.15;;;20.60;60.30;;;;;;5055061;28;20452;-77
2023/01/01 11:28:34;;;;;;;51.08;32.55;;;20.40;60.80;;;;;;5058267;28;20028;-76
2023/01/01 11:31:05;;;;;;;57.58;34.53;;;20.30;60.80;;;;;;5071750;28;20165;-77
2023/01/01 11:33:35;;;;;;;58.78;37.25;;;20.20;61.30;;;;;;5068858;28;20021;-77
2023/01/01 11:36:02;;;;;;;78.45;47.70;;;20.10;60.70;;;;;;5069178;28;20033;-78
2023/01/01 11:38:28;;;;;;;56.10;33.42;;;20.00;60.30;;;;;;5073984;28;20025;-76
2023/01/01 11:40:59;;;;;;;35.58;21.42;;;20.00;60.10;;;;;;5072731;28;20112;-77
2023/01/01 11:43:29;;;;;;;68.85;38.70;;;19.80;60.00;;;;;;5073958;28;20533;-77
2023/01/01 11:45:57;;;;;;;59.58;34.17;;;19.90;60.70;;;;;;5072321;28;20037;-78
2023/01/01 11:48:25;;;;;;;66.03;38.88;;;19.80;60.70;;;;;;5070219;28;20020;-77
2023/01/01 11:50:56;;;;;;;96.75;50.55;;;19.40;60.50;;;;;;5068868;28;20108;-76
2023/01/01 11:53:22;;;;;;;53.70;25.35;;;18.80;61.50;;;;;;5068959;28;20031;-78
2023/01/01 11:56:08;;;;;;;225.15;116.15;;;18.30;61.70;;;;;;5072672;28;20032;-78
2023/01/01 11:58:54;;;;;;;156.68;75.95;;;18.00;63.10;;;;;;5069432;28;20103;-78
2023/01/01 12:01:56;;;;;;;47.00;24.95;;;17.50;64.60;;;;;;5067399;28;20028;-77
2023/01/01 12:04:31;;;;;;;42.80;21.60;;;17.00;65.90;;;;;;5068682;28;20059;-77
2023/01/01 12:07:07;;;;;;;40.50;23.70;;;16.40;67.10;;;;;;5073363;28;20024;-77
2023/01/01 12:09:51;;;;;;;45.42;25.98;;;16.20;68.40;;;;;;5074134;28;20033;-76
2023/01/01 12:12:24;;;;;;;87.00;47.55;;;16.00;69.70;;;;;;5072720;28;20052;-75
2023/01/01 12:15:18;;;;;;;34.75;21.20;;;16.00;70.70;;;;;;5083077;28;20024;-76
2023/01/01 12:17:51;;;;;;;77.57;42.22;;;15.80;70.40;;;;;;5068933;28;20344;-76
2023/01/01 12:20:29;;;;;;;51.28;24.85;;;15.70;71.90;;;;;;5058103;28;20036;-77
2023/01/01 12:22:57;;;;;;;59.33;34.22;;;15.60;72.50;;;;;;5070099;28;20048;-78
2023/01/01 12:25:25;;;;;;;116.03;62.78;;;15.50;73.10;;;;;;5067702;28;20028;-77
2023/01/01 12:28:08;;;;;;;73.68;38.53;;;15.50;73.80;;;;;;5068165;28;20027;-77
2023/01/01 12:31:13;;;;;;;95.00;46.08;;;15.40;75.40;;;;;;5061073;28;20036;-77
2023/01/01 12:33:55;;;;;;;81.35;40.05;;;15.30;76.60;;;;;;5068955;28;20028;-77
2023/01/01 12:36:41;;;;;;;190.02;87.05;;;15.30;76.70;;;;;;5068388;28;20051;-76
2023/01/01 12:39:28;;;;;;;64.18;33.38;;;15.20;77.10;;;;;;5066498;28;20029;-76
2023/01/01 12:42:07;;;;;;;107.68;55.38;;;15.20;78.10;;;;;;5068430;28;20028;-76
2023/01/01 12:44:51;;;;;;;63.67;33.55;;;15.10;78.40;;;;;;5071283;28;20039;-77